Terminal Aerodrome Forecast
Issued by NWS Duluth, MN

Home | Current Version | Previous Version | Text Only | Print | Product List | Glossary On
Versions: 1 2 3 4 5 6 7 8 9 10 11 12 13 14 15 16 17 18 19 20 21 22
000
FTUS43 KDLH 251133
TAFINL
TAF
KINL 251133Z 2512/2612 00000KT P6SM SKC
      TEMPO 2512/2514 1/4SM FG
     FM251700 25010G18KT P6SM SCT080
     FM252200 VRB05KT P6SM VCSH BKN060
     FM260400 00000KT P6SM FEW040 SCT080=

USA.gov is the U.S. government's official web portal to all federal, state and local government web resources and services.